sensor_id;sensor_type;location;lat;lon;timestamp;P1;durP1;ratioP1;P2;durP2;ratioP2
9597;SDS011;4837;50.890;4.724;2023-11-18T00:01:52;19.40;;;16.27;;
9597;SDS011;4837;50.890;4.724;2023-11-18T00:04:18;21.43;;;15.47;;
9597;SDS011;4837;50.890;4.724;2023-11-18T00:06:45;19.67;;;15.10;;
9597;SDS011;4837;50.890;4.724;2023-11-18T00:09:12;17.07;;;14.83;;
9597;SDS011;4837;50.890;4.724;2023-11-18T00:11:39;18.57;;;14.77;;
9597;SDS011;4837;50.890;4.724;2023-11-18T00:14:05;19.43;;;14.90;;
9597;SDS011;4837;50.890;4.724;2023-11-18T00:16:31;22.17;;;14.73;;
9597;SDS011;4837;50.890;4.724;2023-11-18T00:18:57;22.87;;;15.47;;
9597;SDS011;4837;50.890;4.724;2023-11-18T00:21:24;19.47;;;15.30;;
9597;SDS011;4837;50.890;4.724;2023-11-18T00:23:50;19.53;;;14.83;;
9597;SDS011;4837;50.890;4.724;2023-11-18T00:26:16;23.83;;;16.50;;
9597;SDS011;4837;50.890;4.724;2023-11-18T00:28:42;21.03;;;14.80;;
9597;SDS011;4837;50.890;4.724;2023-11-18T00:31:08;24.50;;;14.30;;
9597;SDS011;4837;50.890;4.724;2023-11-18T00:33:35;21.27;;;14.67;;
9597;SDS011;4837;50.890;4.724;2023-11-18T00:36:01;20.73;;;14.50;;
9597;SDS011;4837;50.890;4.724;2023-11-18T00:38:28;20.33;;;14.87;;
9597;SDS011;4837;50.890;4.724;2023-11-18T00:40:55;19.83;;;14.47;;
9597;SDS011;4837;50.890;4.724;2023-11-18T00:43:21;23.87;;;14.17;;
9597;SDS011;4837;50.890;4.724;2023-11-18T00:45:47;20.60;;;13.80;;
9597;SDS011;4837;50.890;4.724;2023-11-18T00:48:13;21.20;;;14.83;;
9597;SDS011;4837;50.890;4.724;2023-11-18T00:50:40;20.97;;;14.93;;
9597;SDS011;4837;50.890;4.724;2023-11-18T00:53:06;17.93;;;12.10;;
9597;SDS011;4837;50.890;4.724;2023-11-18T00:55:32;26.27;;;13.63;;
9597;SDS011;4837;50.890;4.724;2023-11-18T00:57:58;21.60;;;12.97;;
9597;SDS011;4837;50.890;4.724;2023-11-18T01:00:24;20.80;;;13.83;;
9597;SDS011;4837;50.890;4.724;2023-11-18T01:02:51;21.73;;;13.47;;
9597;SDS011;4837;50.890;4.724;2023-11-18T01:05:19;18.93;;;12.53;;
9597;SDS011;4837;50.890;4.724;2023-11-18T01:07:46;21.90;;;13.07;;
9597;SDS011;4837;50.890;4.724;2023-11-18T01:10:12;20.50;;;12.30;;
9597;SDS011;4837;50.890;4.724;2023-11-18T01:12:41;19.07;;;12.80;;
9597;SDS011;4837;50.890;4.724;2023-11-18T01:15:10;20.60;;;12.60;;
9597;SDS011;4837;50.890;4.724;2023-11-18T01:17:38;18.13;;;12.33;;
9597;SDS011;4837;50.890;4.724;2023-11-18T01:20:04;22.23;;;13.37;;
9597;SDS011;4837;50.890;4.724;2023-11-18T01:22:35;18.73;;;11.83;;
9597;SDS011;4837;50.890;4.724;2023-11-18T01:25:01;18.77;;;12.03;;
9597;SDS011;4837;50.890;4.724;2023-11-18T01:27:27;20.13;;;11.93;;
9597;SDS011;4837;50.890;4.724;2023-11-18T01:29:54;18.67;;;11.53;;
9597;SDS011;4837;50.890;4.724;2023-11-18T01:32:20;17.47;;;11.20;;
9597;SDS011;4837;50.890;4.724;2023-11-18T01:34:46;19.23;;;12.73;;
9597;SDS011;4837;50.890;4.724;2023-11-18T01:37:15;19.30;;;12.23;;
9597;SDS011;4837;50.890;4.724;2023-11-18T01:39:42;18.90;;;11.97;;
9597;SDS011;4837;50.890;4.724;2023-11-18T01:42:08;20.20;;;11.83;;
9597;SDS011;4837;50.890;4.724;2023-11-18T01:44:34;18.83;;;12.30;;
9597;SDS011;4837;50.890;4.724;2023-11-18T01:47:01;18.90;;;11.27;;
9597;SDS011;4837;50.890;4.724;2023-11-18T01:49:31;16.63;;;11.67;;
9597;SDS011;4837;50.890;4.724;2023-11-18T01:51:58;20.03;;;11.90;;
9597;SDS011;4837;50.890;4.724;2023-11-18T01:54:26;16.97;;;11.33;;
9597;SDS011;4837;50.890;4.724;2023-11-18T01:56:53;16.40;;;11.07;;
9597;SDS011;4837;50.890;4.724;2023-11-18T01:59:20;20.37;;;11.53;;
9597;SDS011;4837;50.890;4.724;2023-11-18T02:01:47;15.73;;;10.97;;
9597;SDS011;4837;50.890;4.724;2023-11-18T02:04:15;14.93;;;10.40;;
9597;SDS011;4837;50.890;4.724;2023-11-18T02:06:42;16.53;;;10.90;;
9597;SDS011;4837;50.890;4.724;2023-11-18T02:09:10;15.27;;;11.07;;
9597;SDS011;4837;50.890;4.724;2023-11-18T02:11:37;19.87;;;10.57;;
9597;SDS011;4837;50.890;4.724;2023-11-18T02:14:07;18.20;;;11.70;;
9597;SDS011;4837;50.890;4.724;2023-11-18T02:16:36;16.67;;;11.37;;
9597;SDS011;4837;50.890;4.724;2023-11-18T02:19:04;14.33;;;10.67;;
9597;SDS011;4837;50.890;4.724;2023-11-18T02:21:34;17.47;;;10.60;;
9597;SDS011;4837;50.890;4.724;2023-11-18T02:24:03;18.00;;;11.00;;
9597;SDS011;4837;50.890;4.724;2023-11-18T02:26:29;16.20;;;10.40;;
9597;SDS011;4837;50.890;4.724;2023-11-18T02:28:55;19.47;;;10.93;;
9597;SDS011;4837;50.890;4.724;2023-11-18T02:31:27;16.13;;;10.53;;
9597;SDS011;4837;50.890;4.724;2023-11-18T02:34:00;18.37;;;11.30;;
9597;SDS011;4837;50.890;4.724;2023-11-18T02:36:33;16.97;;;11.47;;
9597;SDS011;4837;50.890;4.724;2023-11-18T02:39:11;14.67;;;11.33;;
9597;SDS011;4837;50.890;4.724;2023-11-18T02:41:42;18.87;;;10.43;;
9597;SDS011;4837;50.890;4.724;2023-11-18T02:44:12;16.17;;;10.23;;
9597;SDS011;4837;50.890;4.724;2023-11-18T02:46:43;18.73;;;10.90;;
9597;SDS011;4837;50.890;4.724;2023-11-18T02:49:09;17.73;;;10.60;;
9597;SDS011;4837;50.890;4.724;2023-11-18T02:51:37;14.33;;;10.10;;
9597;SDS011;4837;50.890;4.724;2023-11-18T02:54:07;16.73;;;10.60;;
9597;SDS011;4837;50.890;4.724;2023-11-18T02:56:39;16.43;;;10.37;;
9597;SDS011;4837;50.890;4.724;2023-11-18T02:59:05;16.23;;;9.93;;
9597;SDS011;4837;50.890;4.724;2023-11-18T03:01:32;12.37;;;8.90;;
9597;SDS011;4837;50.890;4.724;2023-11-18T03:04:04;20.03;;;10.13;;
9597;SDS011;4837;50.890;4.724;2023-11-18T03:06:31;13.87;;;9.77;;
9597;SDS011;4837;50.890;4.724;2023-11-18T03:08:58;14.37;;;9.13;;
9597;SDS011;4837;50.890;4.724;2023-11-18T03:11:24;15.80;;;8.87;;
9597;SDS011;4837;50.890;4.724;2023-11-18T03:13:50;17.70;;;9.43;;
9597;SDS011;4837;50.890;4.724;2023-11-18T03:16:16;17.10;;;8.83;;
9597;SDS011;4837;50.890;4.724;2023-11-18T03:18:42;17.17;;;8.77;;
9597;SDS011;4837;50.890;4.724;2023-11-18T03:21:12;15.97;;;9.80;;
9597;SDS011;4837;50.890;4.724;2023-11-18T03:23:39;14.47;;;9.20;;
9597;SDS011;4837;50.890;4.724;2023-11-18T03:26:08;16.33;;;8.87;;
9597;SDS011;4837;50.890;4.724;2023-11-18T03:28:37;17.33;;;9.57;;
9597;SDS011;4837;50.890;4.724;2023-11-18T03:31:04;13.93;;;9.00;;
9597;SDS011;4837;50.890;4.724;2023-11-18T03:33:30;14.97;;;9.00;;
9597;SDS011;4837;50.890;4.724;2023-11-18T03:35:56;13.73;;;9.27;;
9597;SDS011;4837;50.890;4.724;2023-11-18T03:38:23;12.87;;;8.83;;
9597;SDS011;4837;50.890;4.724;2023-11-18T03:40:49;14.57;;;9.17;;
9597;SDS011;4837;50.890;4.724;2023-11-18T03:43:17;15.60;;;9.37;;
9597;SDS011;4837;50.890;4.724;2023-11-18T03:45:45;13.50;;;8.40;;
9597;SDS011;4837;50.890;4.724;2023-11-18T03:48:11;13.33;;;8.37;;
9597;SDS011;4837;50.890;4.724;2023-11-18T03:50:40;13.67;;;9.00;;
9597;SDS011;4837;50.890;4.724;2023-11-18T03:53:06;14.27;;;8.40;;
9597;SDS011;4837;50.890;4.724;2023-11-18T03:55:33;13.27;;;8.80;;
9597;SDS011;4837;50.890;4.724;2023-11-18T03:57:59;13.13;;;8.00;;
9597;SDS011;4837;50.890;4.724;2023-11-18T04:00:25;13.27;;;7.23;;
9597;SDS011;4837;50.890;4.724;2023-11-18T04:02:57;10.60;;;7.20;;
9597;SDS011;4837;50.890;4.724;2023-11-18T04:05:24;12.20;;;6.40;;
9597;SDS011;4837;50.890;4.724;2023-11-18T04:07:50;14.27;;;7.20;;
9597;SDS011;4837;50.890;4.724;2023-11-18T04:10:17;12.87;;;6.10;;
9597;SDS011;4837;50.890;4.724;2023-11-18T04:12:43;9.13;;;5.77;;
9597;SDS011;4837;50.890;4.724;2023-11-18T04:15:13;13.03;;;6.30;;
9597;SDS011;4837;50.890;4.724;2023-11-18T04:17:40;12.87;;;6.03;;
9597;SDS011;4837;50.890;4.724;2023-11-18T04:20:09;12.30;;;5.40;;
9597;SDS011;4837;50.890;4.724;2023-11-18T04:22:42;13.97;;;5.50;;
9597;SDS011;4837;50.890;4.724;2023-11-18T04:25:09;9.93;;;5.80;;
9597;SDS011;4837;50.890;4.724;2023-11-18T04:27:36;10.63;;;5.30;;
9597;SDS011;4837;50.890;4.724;2023-11-18T04:30:03;11.70;;;5.40;;
9597;SDS011;4837;50.890;4.724;2023-11-18T04:32:29;15.60;;;5.53;;
9597;SDS011;4837;50.890;4.724;2023-11-18T04:34:58;10.93;;;5.50;;
9597;SDS011;4837;50.890;4.724;2023-11-18T04:37:25;9.50;;;4.90;;
9597;SDS011;4837;50.890;4.724;2023-11-18T04:39:51;6.90;;;4.70;;
9597;SDS011;4837;50.890;4.724;2023-11-18T04:42:19;8.90;;;4.47;;
9597;SDS011;4837;50.890;4.724;2023-11-18T04:44:45;11.27;;;4.80;;
9597;SDS011;4837;50.890;4.724;2023-11-18T04:47:11;7.20;;;4.20;;
9597;SDS011;4837;50.890;4.724;2023-11-18T04:49:37;9.73;;;4.50;;
9597;SDS011;4837;50.890;4.724;2023-11-18T04:52:04;8.73;;;4.07;;
9597;SDS011;4837;50.890;4.724;2023-11-18T04:54:31;9.97;;;4.33;;
9597;SDS011;4837;50.890;4.724;2023-11-18T04:56:57;8.40;;;4.07;;
9597;SDS011;4837;50.890;4.724;2023-11-18T04:59:23;9.07;;;3.80;;
9597;SDS011;4837;50.890;4.724;2023-11-18T05:01:49;11.20;;;3.93;;
9597;SDS011;4837;50.890;4.724;2023-11-18T05:04:18;9.47;;;3.73;;
9597;SDS011;4837;50.890;4.724;2023-11-18T05:06:44;6.93;;;3.60;;
9597;SDS011;4837;50.890;4.724;2023-11-18T05:09:10;7.27;;;3.70;;
9597;SDS011;4837;50.890;4.724;2023-11-18T05:11:36;9.63;;;3.30;;
9597;SDS011;4837;50.890;4.724;2023-11-18T05:14:04;9.37;;;3.80;;
9597;SDS011;4837;50.890;4.724;2023-11-18T05:16:30;10.13;;;3.70;;
9597;SDS011;4837;50.890;4.724;2023-11-18T05:18:56;6.07;;;3.20;;
9597;SDS011;4837;50.890;4.724;2023-11-18T05:21:22;9.03;;;3.13;;
9597;SDS011;4837;50.890;4.724;2023-11-18T05:23:48;6.07;;;2.90;;
9597;SDS011;4837;50.890;4.724;2023-11-18T05:26:14;7.90;;;2.97;;
9597;SDS011;4837;50.890;4.724;2023-11-18T05:28:40;8.13;;;3.07;;
9597;SDS011;4837;50.890;4.724;2023-11-18T05:31:10;7.93;;;3.10;;
9597;SDS011;4837;50.890;4.724;2023-11-18T05:33:36;7.53;;;3.13;;
9597;SDS011;4837;50.890;4.724;2023-11-18T05:36:03;7.00;;;3.00;;
9597;SDS011;4837;50.890;4.724;2023-11-18T05:38:32;9.73;;;3.27;;
9597;SDS011;4837;50.890;4.724;2023-11-18T05:41:00;9.23;;;2.77;;
9597;SDS011;4837;50.890;4.724;2023-11-18T05:43:32;6.53;;;2.63;;
9597;SDS011;4837;50.890;4.724;2023-11-18T05:46:03;7.77;;;3.07;;
9597;SDS011;4837;50.890;4.724;2023-11-18T05:48:54;10.27;;;3.00;;
9597;SDS011;4837;50.890;4.724;2023-11-18T05:51:21;8.03;;;2.13;;
9597;SDS011;4837;50.890;4.724;2023-11-18T05:53:48;8.80;;;2.90;;
9597;SDS011;4837;50.890;4.724;2023-11-18T05:56:14;5.53;;;2.67;;
9597;SDS011;4837;50.890;4.724;2023-11-18T05:58:44;12.07;;;2.83;;
9597;SDS011;4837;50.890;4.724;2023-11-18T06:01:11;11.63;;;2.70;;
9597;SDS011;4837;50.890;4.724;2023-11-18T06:03:37;12.90;;;2.50;;
9597;SDS011;4837;50.890;4.724;2023-11-18T06:06:06;6.00;;;2.60;;
9597;SDS011;4837;50.890;4.724;2023-11-18T06:08:33;6.03;;;2.37;;
9597;SDS011;4837;50.890;4.724;2023-11-18T06:10:59;6.33;;;2.47;;
9597;SDS011;4837;50.890;4.724;2023-11-18T06:13:38;8.57;;;2.90;;
9597;SDS011;4837;50.890;4.724;2023-11-18T06:16:08;11.43;;;2.67;;
9597;SDS011;4837;50.890;4.724;2023-11-18T06:18:34;7.30;;;2.53;;
9597;SDS011;4837;50.890;4.724;2023-11-18T06:21:01;12.13;;;2.83;;
9597;SDS011;4837;50.890;4.724;2023-11-18T06:23:28;6.07;;;2.33;;
9597;SDS011;4837;50.890;4.724;2023-11-18T06:25:58;8.63;;;2.70;;
9597;SDS011;4837;50.890;4.724;2023-11-18T06:28:25;6.37;;;2.73;;
9597;SDS011;4837;50.890;4.724;2023-11-18T06:30:51;7.27;;;3.07;;
9597;SDS011;4837;50.890;4.724;2023-11-18T06:33:17;9.30;;;2.67;;
9597;SDS011;4837;50.890;4.724;2023-11-18T06:35:48;10.23;;;2.77;;
9597;SDS011;4837;50.890;4.724;2023-11-18T06:38:14;7.17;;;3.23;;
9597;SDS011;4837;50.890;4.724;2023-11-18T06:40:44;7.00;;;2.13;;
9597;SDS011;4837;50.890;4.724;2023-11-18T06:43:11;7.43;;;2.53;;
9597;SDS011;4837;50.890;4.724;2023-11-18T06:45:41;9.03;;;2.90;;
9597;SDS011;4837;50.890;4.724;2023-11-18T06:48:08;5.07;;;2.00;;
9597;SDS011;4837;50.890;4.724;2023-11-18T06:50:34;4.13;;;2.03;;
9597;SDS011;4837;50.890;4.724;2023-11-18T06:53:01;6.50;;;2.00;;
9597;SDS011;4837;50.890;4.724;2023-11-18T06:55:27;7.33;;;2.07;;
9597;SDS011;4837;50.890;4.724;2023-11-18T06:57:53;9.90;;;2.50;;
9597;SDS011;4837;50.890;4.724;2023-11-18T07:00:20;9.70;;;2.43;;
9597;SDS011;4837;50.890;4.724;2023-11-18T07:02:47;6.60;;;2.60;;
9597;SDS011;4837;50.890;4.724;2023-11-18T07:05:13;7.60;;;2.60;;
9597;SDS011;4837;50.890;4.724;2023-11-18T07:07:40;8.37;;;2.90;;
9597;SDS011;4837;50.890;4.724;2023-11-18T07:10:08;5.90;;;2.83;;
9597;SDS011;4837;50.890;4.724;2023-11-18T07:12:38;7.50;;;2.90;;
9597;SDS011;4837;50.890;4.724;2023-11-18T07:15:04;10.47;;;2.80;;
9597;SDS011;4837;50.890;4.724;2023-11-18T07:17:31;6.07;;;2.93;;
9597;SDS011;4837;50.890;4.724;2023-11-18T07:19:59;6.07;;;2.93;;
9597;SDS011;4837;50.890;4.724;2023-11-18T07:22:25;10.73;;;2.70;;
9597;SDS011;4837;50.890;4.724;2023-11-18T07:24:52;7.93;;;2.60;;
9597;SDS011;4837;50.890;4.724;2023-11-18T07:27:18;6.97;;;2.93;;
9597;SDS011;4837;50.890;4.724;2023-11-18T07:29:44;6.07;;;3.10;;
9597;SDS011;4837;50.890;4.724;2023-11-18T07:32:10;8.43;;;3.53;;
9597;SDS011;4837;50.890;4.724;2023-11-18T07:34:36;6.93;;;3.17;;
9597;SDS011;4837;50.890;4.724;2023-11-18T07:37:03;9.70;;;3.40;;
9597;SDS011;4837;50.890;4.724;2023-11-18T07:39:29;9.07;;;3.63;;
9597;SDS011;4837;50.890;4.724;2023-11-18T07:42:12;12.20;;;3.10;;
9597;SDS011;4837;50.890;4.724;2023-11-18T07:44:39;9.10;;;2.80;;
9597;SDS011;4837;50.890;4.724;2023-11-18T07:47:05;7.77;;;2.60;;
9597;SDS011;4837;50.890;4.724;2023-11-18T07:49:32;6.87;;;3.00;;
9597;SDS011;4837;50.890;4.724;2023-11-18T07:51:58;5.80;;;2.77;;
9597;SDS011;4837;50.890;4.724;2023-11-18T07:54:24;7.77;;;2.87;;
9597;SDS011;4837;50.890;4.724;2023-11-18T07:56:50;7.00;;;3.07;;
9597;SDS011;4837;50.890;4.724;2023-11-18T07:59:18;9.47;;;3.40;;
9597;SDS011;4837;50.890;4.724;2023-11-18T08:01:45;10.37;;;3.67;;
9597;SDS011;4837;50.890;4.724;2023-11-18T08:04:14;4.53;;;2.90;;
9597;SDS011;4837;50.890;4.724;2023-11-18T08:06:42;4.80;;;3.17;;
9597;SDS011;4837;50.890;4.724;2023-11-18T08:09:09;10.33;;;3.30;;
9597;SDS011;4837;50.890;4.724;2023-11-18T08:11:39;8.17;;;3.30;;
9597;SDS011;4837;50.890;4.724;2023-11-18T08:14:06;5.87;;;3.03;;
9597;SDS011;4837;50.890;4.724;2023-11-18T08:16:33;8.90;;;3.00;;
9597;SDS011;4837;50.890;4.724;2023-11-18T08:19:00;8.93;;;3.00;;
9597;SDS011;4837;50.890;4.724;2023-11-18T08:21:27;9.10;;;3.30;;
9597;SDS011;4837;50.890;4.724;2023-11-18T08:23:54;10.07;;;3.23;;
9597;SDS011;4837;50.890;4.724;2023-11-18T08:26:20;10.63;;;2.90;;
9597;SDS011;4837;50.890;4.724;2023-11-18T08:28:47;11.27;;;3.10;;
9597;SDS011;4837;50.890;4.724;2023-11-18T08:31:13;10.30;;;2.93;;
9597;SDS011;4837;50.890;4.724;2023-11-18T08:33:41;12.07;;;4.03;;
9597;SDS011;4837;50.890;4.724;2023-11-18T08:36:07;7.93;;;3.77;;
9597;SDS011;4837;50.890;4.724;2023-11-18T08:38:33;7.33;;;3.60;;
9597;SDS011;4837;50.890;4.724;2023-11-18T08:41:00;7.97;;;3.90;;
9597;SDS011;4837;50.890;4.724;2023-11-18T08:43:28;12.73;;;4.00;;
9597;SDS011;4837;50.890;4.724;2023-11-18T08:45:55;11.17;;;4.10;;
9597;SDS011;4837;50.890;4.724;2023-11-18T08:48:21;9.43;;;3.90;;
9597;SDS011;4837;50.890;4.724;2023-11-18T08:50:48;11.60;;;4.37;;
9597;SDS011;4837;50.890;4.724;2023-11-18T08:53:16;8.37;;;4.03;;
9597;SDS011;4837;50.890;4.724;2023-11-18T08:55:44;9.00;;;4.20;;
9597;SDS011;4837;50.890;4.724;2023-11-18T08:58:16;10.20;;;4.40;;
9597;SDS011;4837;50.890;4.724;2023-11-18T09:00:51;7.70;;;3.83;;
9597;SDS011;4837;50.890;4.724;2023-11-18T09:03:17;6.30;;;4.33;;
9597;SDS011;4837;50.890;4.724;2023-11-18T09:05:50;6.20;;;3.80;;
9597;SDS011;4837;50.890;4.724;2023-11-18T09:08:32;6.10;;;3.50;;
9597;SDS011;4837;50.890;4.724;2023-11-18T09:11:04;8.43;;;4.20;;
9597;SDS011;4837;50.890;4.724;2023-11-18T09:13:30;10.77;;;4.40;;
9597;SDS011;4837;50.890;4.724;2023-11-18T09:15:57;11.63;;;4.93;;
9597;SDS011;4837;50.890;4.724;2023-11-18T09:18:25;7.00;;;4.00;;
9597;SDS011;4837;50.890;4.724;2023-11-18T09:20:56;8.63;;;4.50;;
9597;SDS011;4837;50.890;4.724;2023-11-18T09:23:26;8.43;;;4.47;;
9597;SDS011;4837;50.890;4.724;2023-11-18T09:25:55;9.43;;;5.50;;
9597;SDS011;4837;50.890;4.724;2023-11-18T09:28:24;10.63;;;5.43;;
9597;SDS011;4837;50.890;4.724;2023-11-18T09:30:53;10.07;;;4.77;;
9597;SDS011;4837;50.890;4.724;2023-11-18T09:33:22;11.70;;;4.60;;
9597;SDS011;4837;50.890;4.724;2023-11-18T09:36:04;11.70;;;5.77;;
9597;SDS011;4837;50.890;4.724;2023-11-18T09:38:37;12.17;;;5.20;;
9597;SDS011;4837;50.890;4.724;2023-11-18T09:41:06;10.17;;;5.03;;
9597;SDS011;4837;50.890;4.724;2023-11-18T09:43:32;8.80;;;5.20;;
9597;SDS011;4837;50.890;4.724;2023-11-18T09:46:07;9.47;;;5.47;;
9597;SDS011;4837;50.890;4.724;2023-11-18T09:48:47;8.47;;;5.57;;
9597;SDS011;4837;50.890;4.724;2023-11-18T09:53:49;12.10;;;6.50;;
9597;SDS011;4837;50.890;4.724;2023-11-18T09:59:01;11.80;;;6.13;;
9597;SDS011;4837;50.890;4.724;2023-11-18T10:01:28;8.87;;;4.67;;
9597;SDS011;4837;50.890;4.724;2023-11-18T10:03:58;9.33;;;5.43;;
9597;SDS011;4837;50.890;4.724;2023-11-18T10:06:25;8.77;;;5.27;;
9597;SDS011;4837;50.890;4.724;2023-11-18T10:08:53;8.87;;;4.77;;
9597;SDS011;4837;50.890;4.724;2023-11-18T10:11:19;10.70;;;5.00;;
9597;SDS011;4837;50.890;4.724;2023-11-18T10:13:48;8.40;;;5.10;;
9597;SDS011;4837;50.890;4.724;2023-11-18T10:16:14;10.63;;;4.93;;
9597;SDS011;4837;50.890;4.724;2023-11-18T10:18:40;7.47;;;4.80;;
9597;SDS011;4837;50.890;4.724;2023-11-18T10:21:14;9.23;;;5.30;;
9597;SDS011;4837;50.890;4.724;2023-11-18T10:23:59;10.63;;;5.00;;
9597;SDS011;4837;50.890;4.724;2023-11-18T10:26:30;7.53;;;5.37;;
9597;SDS011;4837;50.890;4.724;2023-11-18T10:29:02;9.07;;;5.40;;
9597;SDS011;4837;50.890;4.724;2023-11-18T10:31:32;9.17;;;5.50;;
9597;SDS011;4837;50.890;4.724;2023-11-18T10:34:00;8.77;;;5.70;;
9597;SDS011;4837;50.890;4.724;2023-11-18T10:36:29;8.77;;;5.43;;
9597;SDS011;4837;50.890;4.724;2023-11-18T10:38:58;7.87;;;4.67;;
9597;SDS011;4837;50.890;4.724;2023-11-18T10:41:25;10.00;;;5.30;;
9597;SDS011;4837;50.890;4.724;2023-11-18T10:44:07;9.33;;;5.40;;
9597;SDS011;4837;50.890;4.724;2023-11-18T10:46:38;10.67;;;5.70;;
9597;SDS011;4837;50.890;4.724;2023-11-18T10:49:05;12.17;;;6.60;;
9597;SDS011;4837;50.890;4.724;2023-11-18T10:51:35;9.83;;;7.30;;
9597;SDS011;4837;50.890;4.724;2023-11-18T10:54:04;9.10;;;7.07;;
9597;SDS011;4837;50.890;4.724;2023-11-18T10:56:31;8.23;;;6.20;;
9597;SDS011;4837;50.890;4.724;2023-11-18T10:58:58;8.23;;;6.50;;
9597;SDS011;4837;50.890;4.724;2023-11-18T11:01:28;6.93;;;4.80;;
9597;SDS011;4837;50.890;4.724;2023-11-18T11:03:54;7.10;;;5.47;;
9597;SDS011;4837;50.890;4.724;2023-11-18T11:06:22;8.63;;;5.20;;
9597;SDS011;4837;50.890;4.724;2023-11-18T11:08:49;6.07;;;4.57;;
9597;SDS011;4837;50.890;4.724;2023-11-18T11:11:19;6.17;;;4.93;;
9597;SDS011;4837;50.890;4.724;2023-11-18T11:13:48;5.67;;;3.83;;
9597;SDS011;4837;50.890;4.724;2023-11-18T11:16:16;9.17;;;3.80;;
9597;SDS011;4837;50.890;4.724;2023-11-18T11:18:47;8.77;;;4.00;;
9597;SDS011;4837;50.890;4.724;2023-11-18T11:21:18;4.37;;;3.80;;
9597;SDS011;4837;50.890;4.724;2023-11-18T11:31:35;6.33;;;5.73;;
9597;SDS011;4837;50.890;4.724;2023-11-18T11:36:47;6.33;;;4.00;;
9597;SDS011;4837;50.890;4.724;2023-11-18T11:39:18;8.20;;;4.20;;
9597;SDS011;4837;50.890;4.724;2023-11-18T11:41:51;9.30;;;3.90;;
9597;SDS011;4837;50.890;4.724;2023-11-18T11:44:17;6.57;;;3.90;;
9597;SDS011;4837;50.890;4.724;2023-11-18T11:46:47;8.70;;;3.67;;
9597;SDS011;4837;50.890;4.724;2023-11-18T11:49:19;7.13;;;3.13;;
9597;SDS011;4837;50.890;4.724;2023-11-18T11:51:54;4.97;;;3.83;;
9597;SDS011;4837;50.890;4.724;2023-11-18T11:54:27;5.37;;;2.90;;
9597;SDS011;4837;50.890;4.724;2023-11-18T11:57:01;3.13;;;2.30;;
9597;SDS011;4837;50.890;4.724;2023-11-18T12:02:10;4.00;;;2.40;;
9597;SDS011;4837;50.890;4.724;2023-11-18T12:04:43;4.90;;;2.57;;
9597;SDS011;4837;50.890;4.724;2023-11-18T12:07:09;6.60;;;2.30;;
9597;SDS011;4837;50.890;4.724;2023-11-18T12:09:40;5.37;;;2.67;;
9597;SDS011;4837;50.890;4.724;2023-11-18T12:12:18;5.47;;;2.50;;
9597;SDS011;4837;50.890;4.724;2023-11-18T12:14:48;3.87;;;2.27;;
9597;SDS011;4837;50.890;4.724;2023-11-18T12:17:15;4.77;;;2.40;;
9597;SDS011;4837;50.890;4.724;2023-11-18T12:19:48;4.00;;;2.40;;
9597;SDS011;4837;50.890;4.724;2023-11-18T12:22:19;4.70;;;2.33;;
9597;SDS011;4837;50.890;4.724;2023-11-18T12:27:45;3.23;;;1.80;;
9597;SDS011;4837;50.890;4.724;2023-11-18T12:33:01;3.00;;;1.70;;
9597;SDS011;4837;50.890;4.724;2023-11-18T12:41:00;2.37;;;1.40;;
9597;SDS011;4837;50.890;4.724;2023-11-18T12:49:08;1.67;;;1.30;;
9597;SDS011;4837;50.890;4.724;2023-11-18T12:51:45;4.03;;;2.07;;
9597;SDS011;4837;50.890;4.724;2023-11-18T12:54:12;2.20;;;1.90;;
9597;SDS011;4837;50.890;4.724;2023-11-18T12:56:38;2.43;;;1.70;;
9597;SDS011;4837;50.890;4.724;2023-11-18T12:59:05;1.53;;;1.33;;
9597;SDS011;4837;50.890;4.724;2023-11-18T13:01:34;1.03;;;0.93;;
9597;SDS011;4837;50.890;4.724;2023-11-18T13:04:03;3.73;;;2.07;;
9597;SDS011;4837;50.890;4.724;2023-11-18T13:06:29;1.57;;;1.47;;
9597;SDS011;4837;50.890;4.724;2023-11-18T13:08:55;1.40;;;1.07;;
9597;SDS011;4837;50.890;4.724;2023-11-18T13:11:23;1.50;;;1.10;;
9597;SDS011;4837;50.890;4.724;2023-11-18T13:13:52;1.93;;;1.20;;
9597;SDS011;4837;50.890;4.724;2023-11-18T13:16:18;1.53;;;1.20;;
9597;SDS011;4837;50.890;4.724;2023-11-18T13:18:45;2.07;;;1.10;;
9597;SDS011;4837;50.890;4.724;2023-11-18T13:21:18;2.00;;;1.10;;
9597;SDS011;4837;50.890;4.724;2023-11-18T13:23:45;1.20;;;1.10;;
9597;SDS011;4837;50.890;4.724;2023-11-18T13:26:12;1.67;;;1.00;;
9597;SDS011;4837;50.890;4.724;2023-11-18T13:28:38;1.60;;;1.30;;
9597;SDS011;4837;50.890;4.724;2023-11-18T13:31:05;1.87;;;1.17;;
9597;SDS011;4837;50.890;4.724;2023-11-18T13:33:40;3.83;;;3.10;;
9597;SDS011;4837;50.890;4.724;2023-11-18T13:36:07;2.27;;;1.80;;
9597;SDS011;4837;50.890;4.724;2023-11-18T13:38:37;1.33;;;0.90;;
9597;SDS011;4837;50.890;4.724;2023-11-18T13:41:04;1.90;;;1.70;;
9597;SDS011;4837;50.890;4.724;2023-11-18T13:46:12;2.20;;;2.00;;
9597;SDS011;4837;50.890;4.724;2023-11-18T13:48:39;1.27;;;1.10;;
9597;SDS011;4837;50.890;4.724;2023-11-18T13:51:06;1.50;;;1.40;;
9597;SDS011;4837;50.890;4.724;2023-11-18T13:53:33;2.03;;;1.90;;
9597;SDS011;4837;50.890;4.724;2023-11-18T13:55:59;1.63;;;1.30;;
9597;SDS011;4837;50.890;4.724;2023-11-18T13:58:26;2.30;;;1.80;;
9597;SDS011;4837;50.890;4.724;2023-11-18T14:00:53;1.60;;;1.30;;
9597;SDS011;4837;50.890;4.724;2023-11-18T14:03:21;2.13;;;1.47;;
9597;SDS011;4837;50.890;4.724;2023-11-18T14:05:50;1.50;;;1.40;;
9597;SDS011;4837;50.890;4.724;2023-11-18T14:08:17;1.30;;;1.00;;
9597;SDS011;4837;50.890;4.724;2023-11-18T14:10:45;1.43;;;1.30;;
9597;SDS011;4837;50.890;4.724;2023-11-18T14:13:14;2.17;;;1.10;;
9597;SDS011;4837;50.890;4.724;2023-11-18T14:15:42;1.20;;;1.10;;
9597;SDS011;4837;50.890;4.724;2023-11-18T14:18:10;1.27;;;1.17;;
9597;SDS011;4837;50.890;4.724;2023-11-18T14:20:38;1.47;;;1.30;;
9597;SDS011;4837;50.890;4.724;2023-11-18T14:23:04;1.40;;;1.30;;
9597;SDS011;4837;50.890;4.724;2023-11-18T14:25:33;1.23;;;1.03;;
9597;SDS011;4837;50.890;4.724;2023-11-18T14:27:59;1.47;;;1.37;;
9597;SDS011;4837;50.890;4.724;2023-11-18T14:30:27;1.30;;;1.20;;
9597;SDS011;4837;50.890;4.724;2023-11-18T14:32:53;1.20;;;1.10;;
9597;SDS011;4837;50.890;4.724;2023-11-18T14:35:20;1.47;;;1.20;;
9597;SDS011;4837;50.890;4.724;2023-11-18T14:37:47;2.13;;;1.10;;
9597;SDS011;4837;50.890;4.724;2023-11-18T14:40:14;1.33;;;1.10;;
9597;SDS011;4837;50.890;4.724;2023-11-18T14:42:47;1.67;;;1.57;;
9597;SDS011;4837;50.890;4.724;2023-11-18T14:45:14;2.10;;;1.30;;
9597;SDS011;4837;50.890;4.724;2023-11-18T14:47:41;2.53;;;1.30;;
9597;SDS011;4837;50.890;4.724;2023-11-18T14:50:10;3.83;;;1.30;;
9597;SDS011;4837;50.890;4.724;2023-11-18T14:52:46;1.20;;;1.10;;
9597;SDS011;4837;50.890;4.724;2023-11-18T14:55:14;2.30;;;1.47;;
9597;SDS011;4837;50.890;4.724;2023-11-18T14:57:43;1.60;;;1.10;;
9597;SDS011;4837;50.890;4.724;2023-11-18T15:00:09;1.03;;;0.80;;
9597;SDS011;4837;50.890;4.724;2023-11-18T15:02:50;2.20;;;1.10;;
9597;SDS011;4837;50.890;4.724;2023-11-18T15:05:17;1.93;;;1.00;;
9597;SDS011;4837;50.890;4.724;2023-11-18T15:07:47;1.20;;;1.00;;
9597;SDS011;4837;50.890;4.724;2023-11-18T15:10:17;2.17;;;1.00;;
9597;SDS011;4837;50.890;4.724;2023-11-18T15:12:46;1.73;;;1.40;;
9597;SDS011;4837;50.890;4.724;2023-11-18T15:15:13;2.07;;;1.43;;
9597;SDS011;4837;50.890;4.724;2023-11-18T15:17:46;1.93;;;1.10;;
9597;SDS011;4837;50.890;4.724;2023-11-18T15:20:20;2.83;;;1.70;;
9597;SDS011;4837;50.890;4.724;2023-11-18T15:22:48;1.53;;;1.10;;
9597;SDS011;4837;50.890;4.724;2023-11-18T15:25:14;2.22;;;1.75;;
9597;SDS011;4837;50.890;4.724;2023-11-18T15:27:45;1.85;;;1.45;;
9597;SDS011;4837;50.890;4.724;2023-11-18T15:30:16;1.77;;;1.43;;
9597;SDS011;4837;50.890;4.724;2023-11-18T15:32:43;1.10;;;1.00;;
9597;SDS011;4837;50.890;4.724;2023-11-18T15:35:10;5.13;;;4.00;;
9597;SDS011;4837;50.890;4.724;2023-11-18T15:37:38;1.87;;;1.50;;
9597;SDS011;4837;50.890;4.724;2023-11-18T15:40:06;1.63;;;1.30;;
9597;SDS011;4837;50.890;4.724;2023-11-18T15:42:37;1.53;;;1.23;;
9597;SDS011;4837;50.890;4.724;2023-11-18T15:45:03;1.60;;;1.37;;
9597;SDS011;4837;50.890;4.724;2023-11-18T15:47:30;2.00;;;1.20;;
9597;SDS011;4837;50.890;4.724;2023-11-18T15:49:56;1.90;;;1.70;;
9597;SDS011;4837;50.890;4.724;2023-11-18T15:52:23;2.50;;;1.53;;